PWSweather.com
Personal Weather Stations
Station Observations
DELHOVEN
DormagenDE 41540

DormagenDE 41540

Lat: 51.083, Lon: 6.775

Elevation: 120

Station Type: WH1080

Latest ConditionsUpdated 7:05:58 PM GMT+01:01 Wednesday, Jan 18, 2017
Currently Today's Max Today's Min Today's Average
Temperature 29.5°F-1.4°C 33.8°F1.0°C 18.3°F-7.6°C 25.9°F-3.4°C
Dew Point 21.3°F-5.9°C 24.6°F-4.1°C 12.6°F-10.8°C 19.0°F-7.2°C
Winds Calm Calm 6.0 mph 9.7 kmh - 0.8 mph 1.3 kmh
Wind Gusts -- 7.6 mph12.2 kmh - -
Humidity 71% 83% 56% 75%
Pressure 30.57 in1035.2 mb 30.60 in1036.2 mb 30.55 in1034.5 mb -
Hour Temp Dew Point Humidity Winds Wind Gusts Pressure Precip Precip Rate Daily Precip Total
07:05 PM 29.5°F-1.4°C 21.3°F-5.9°C 71% Calm Calm -- 30.57 in1035.2 mb 0.00 in0.0 mm 0.00 in0.0 mm 0.00 in0.0 mm
07:00 PM 29.7°F-1.3°C 21.4°F-5.9°C 71% Calm Calm -- 30.57 in1035.2 mb 0.00 in0.0 mm 0.00 in0.0 mm 0.00 in0.0 mm
06:55 PM 29.8°F-1.2°C 21.6°F-5.8°C 71% Calm Calm -- 30.58 in1035.6 mb 0.00 in0.0 mm 0.00 in0.0 mm 0.00 in0.0 mm
06:50 PM 29.8°F-1.2°C 21.6°F-5.8°C 71% Calm Calm -- 30.57 in1035.2 mb 0.00 in0.0 mm 0.00 in0.0 mm 0.00 in0.0 mm
06:45 PM 30.0°F-1.1°C 21.4°F-5.9°C 70% Calm Calm -- 30.58 in1035.6 mb 0.00 in0.0 mm 0.00 in0.0 mm 0.00 in0.0 mm
06:40 PM 30.0°F-1.1°C 21.4°F-5.9°C 70% Calm Calm -- 30.57 in1035.2 mb 0.00 in0.0 mm 0.00 in0.0 mm 0.00 in0.0 mm
06:35 PM 30.2°F-1.0°C 21.3°F-5.9°C 69% Calm Calm -- 30.58 in1035.6 mb 0.00 in0.0 mm 0.00 in0.0 mm 0.00 in0.0 mm
06:30 PM 30.2°F-1.0°C 21.3°F-5.9°C 69% Calm Calm -- 30.58 in1035.6 mb 0.00 in0.0 mm 0.00 in0.0 mm 0.00 in0.0 mm
06:25 PM 30.2°F-1.0°C 21.3°F-5.9°C 69% Calm Calm -- 30.58 in1035.6 mb 0.00 in0.0 mm 0.00 in0.0 mm 0.00 in0.0 mm
06:20 PM 30.2°F-1.0°C 21.3°F-5.9°C 69% Calm Calm -- 30.58 in1035.6 mb 0.00 in0.0 mm 0.00 in0.0 mm 0.00 in0.0 mm
06:15 PM 30.2°F-1.0°C 21.3°F-5.9°C 69% Calm Calm -- 30.58 in1035.6 mb 0.00 in0.0 mm 0.00 in0.0 mm 0.00 in0.0 mm
06:10 PM 30.2°F-1.0°C 20.9°F-6.2°C 68% Calm Calm -- 30.58 in1035.6 mb 0.00 in0.0 mm 0.00 in0.0 mm 0.00 in0.0 mm
06:05 PM 30.4°F-0.9°C 21.1°F-6.1°C 68% Calm Calm -- 30.58 in1035.6 mb 0.00 in0.0 mm 0.00 in0.0 mm 0.00 in0.0 mm
06:00 PM 30.4°F-0.9°C 21.1°F-6.1°C 68% Calm Calm -- 30.59 in1035.9 mb 0.00 in0.0 mm 0.00 in0.0 mm 0.00 in0.0 mm
05:55 PM 30.4°F-0.9°C 21.1°F-6.1°C 68% Calm Calm -- 30.58 in1035.6 mb 0.00 in0.0 mm 0.00 in0.0 mm 0.00 in0.0 mm
05:50 PM 30.4°F-0.9°C 21.1°F-6.1°C 68% Calm Calm -- 30.58 in1035.6 mb 0.00 in0.0 mm 0.00 in0.0 mm 0.00 in0.0 mm
05:45 PM 30.6°F-0.8°C 20.9°F-6.2°C 67% Calm Calm -- 30.59 in1035.9 mb 0.00 in0.0 mm 0.00 in0.0 mm 0.00 in0.0 mm
05:40 PM 30.9°F-0.6°C 21.3°F-5.9°C 67% Calm Calm -- 30.59 in1035.9 mb 0.00 in0.0 mm 0.00 in0.0 mm 0.00 in0.0 mm
05:35 PM 31.1°F-0.5°C 21.1°F-6.1°C 66% Calm Calm 0.7 mph1.1 kmh 30.59 in1035.9 mb 0.00 in0.0 mm 0.00 in0.0 mm 0.00 in0.0 mm
05:30 PM 31.5°F-0.3°C 21.4°F-5.9°C 66% Calm Calm -- 30.60 in1036.2 mb 0.00 in0.0 mm 0.00 in0.0 mm 0.00 in0.0 mm
05:25 PM 31.6°F-0.2°C 21.6°F-5.8°C 66% Calm Calm -- 30.59 in1035.9 mb 0.00 in0.0 mm 0.00 in0.0 mm 0.00 in0.0 mm
05:20 PM 32.0°F0.0°C 21.2°F-6.0°C 64% Calm Calm -- 30.59 in1035.9 mb 0.00 in0.0 mm 0.00 in0.0 mm 0.00 in0.0 mm
05:15 PM 32.2°F0.1°C 21.4°F-5.9°C 64% Calm Calm -- 30.60 in1036.2 mb 0.00 in0.0 mm 0.00 in0.0 mm 0.00 in0.0 mm
05:10 PM 32.4°F0.2°C 21.6°F-5.8°C 64% Calm Calm -- 30.60 in1036.2 mb 0.00 in0.0 mm 0.00 in0.0 mm 0.00 in0.0 mm
05:05 PM 32.5°F0.3°C 21.4°F-5.9°C 63% Calm Calm -- 30.60 in1036.2 mb 0.00 in0.0 mm 0.00 in0.0 mm 0.00 in0.0 mm
05:00 PM 32.7°F0.4°C 21.5°F-5.8°C 63% Calm Calm -- 30.60 in1036.2 mb 0.00 in0.0 mm 0.00 in0.0 mm 0.00 in0.0 mm
04:55 PM 32.9°F0.5°C 21.3°F-5.9°C 62% Calm Calm -- 30.60 in1036.2 mb 0.00 in0.0 mm 0.00 in0.0 mm 0.00 in0.0 mm
04:50 PM 33.1°F0.6°C 21.5°F-5.8°C 62% Calm Calm -- 30.60 in1036.2 mb 0.00 in0.0 mm 0.00 in0.0 mm 0.00 in0.0 mm
04:45 PM 33.3°F0.7°C 21.7°F-5.7°C 62% Calm Calm -- 30.60 in1036.2 mb 0.00 in0.0 mm 0.00 in0.0 mm 0.00 in0.0 mm
04:40 PM 33.4°F0.8°C 21.8°F-5.7°C 62% Calm Calm -- 30.59 in1035.9 mb 0.00 in0.0 mm 0.00 in0.0 mm 0.00 in0.0 mm
04:35 PM 33.6°F0.9°C 22.0°F-5.6°C 62% Calm Calm -- 30.59 in1035.9 mb 0.00 in0.0 mm 0.00 in0.0 mm 0.00 in0.0 mm
04:30 PM 33.4°F0.8°C 21.8°F-5.7°C 62% Calm Calm -- 30.60 in1036.2 mb 0.00 in0.0 mm 0.00 in0.0 mm 0.00 in0.0 mm
04:25 PM 33.4°F0.8°C 21.5°F-5.8°C 61% Calm Calm 0.7 mph1.1 kmh 30.60 in1036.2 mb 0.00 in0.0 mm 0.00 in0.0 mm 0.00 in0.0 mm
04:20 PM 33.3°F0.7°C 21.3°F-5.9°C 61% Calm Calm -- 30.60 in1036.2 mb 0.00 in0.0 mm 0.00 in0.0 mm 0.00 in0.0 mm
04:15 PM 33.3°F0.7°C 21.3°F-5.9°C 61% Calm Calm -- 30.60 in1036.2 mb 0.00 in0.0 mm 0.00 in0.0 mm 0.00 in0.0 mm
04:10 PM 33.4°F0.8°C 21.5°F-5.8°C 61% Calm Calm -- 30.60 in1036.2 mb 0.00 in0.0 mm 0.00 in0.0 mm 0.00 in0.0 mm
04:05 PM 33.4°F0.8°C 21.5°F-5.8°C 61% Calm Calm -- 30.60 in1036.2 mb 0.00 in0.0 mm 0.00 in0.0 mm 0.00 in0.0 mm
04:00 PM 33.4°F0.8°C 21.5°F-5.8°C 61% Calm Calm -- 30.60 in1036.2 mb 0.00 in0.0 mm 0.00 in0.0 mm 0.00 in0.0 mm
03:55 PM 33.4°F0.8°C 21.5°F-5.8°C 61% Calm Calm -- 30.60 in1036.2 mb 0.00 in0.0 mm 0.00 in0.0 mm 0.00 in0.0 mm
03:50 PM 33.3°F0.7°C 21.3°F-5.9°C 61% Calm Calm -- 30.60 in1036.2 mb 0.00 in0.0 mm 0.00 in0.0 mm 0.00 in0.0 mm
03:45 PM 33.3°F0.7°C 20.9°F-6.2°C 60% Calm Calm -- 30.60 in1036.2 mb 0.00 in0.0 mm 0.00 in0.0 mm 0.00 in0.0 mm
03:40 PM 33.1°F0.6°C 20.3°F-6.5°C 59% Calm Calm -- 30.59 in1035.9 mb 0.00 in0.0 mm 0.00 in0.0 mm 0.00 in0.0 mm
03:35 PM 33.3°F0.7°C 20.5°F-6.4°C 59% Calm Calm -- 30.59 in1035.9 mb 0.00 in0.0 mm 0.00 in0.0 mm 0.00 in0.0 mm
03:30 PM 33.3°F0.7°C 20.1°F-6.6°C 58% Calm Calm -- 30.59 in1035.9 mb 0.00 in0.0 mm 0.00 in0.0 mm 0.00 in0.0 mm
03:25 PM 33.4°F0.8°C 20.3°F-6.5°C 58% Calm Calm -- 30.59 in1035.9 mb 0.00 in0.0 mm 0.00 in0.0 mm 0.00 in0.0 mm
03:20 PM 33.6°F0.9°C 20.4°F-6.4°C 58% Calm Calm -- 30.59 in1035.9 mb 0.00 in0.0 mm 0.00 in0.0 mm 0.00 in0.0 mm
03:15 PM 33.6°F0.9°C 20.4°F-6.4°C 58% Calm Calm -- 30.59 in1035.9 mb 0.00 in0.0 mm 0.00 in0.0 mm 0.00 in0.0 mm
03:10 PM 33.8°F1.0°C 19.8°F-6.8°C 56% Calm Calm -- 30.59 in1035.9 mb 0.00 in0.0 mm 0.00 in0.0 mm 0.00 in0.0 mm
03:05 PM 33.8°F1.0°C 20.2°F-6.6°C 57% Calm Calm -- 30.59 in1035.9 mb 0.00 in0.0 mm 0.00 in0.0 mm 0.00 in0.0 mm
03:00 PM 33.6°F0.9°C 20.4°F-6.4°C 58% Calm Calm -- 30.59 in1035.9 mb 0.00 in0.0 mm 0.00 in0.0 mm 0.00 in0.0 mm
02:55 PM 33.4°F0.8°C 20.3°F-6.5°C 58% Calm Calm -- 30.59 in1035.9 mb 0.00 in0.0 mm 0.00 in0.0 mm 0.00 in0.0 mm
02:50 PM 33.6°F0.9°C 20.8°F-6.2°C 59% Calm Calm 1.6 mph2.6 kmh 30.59 in1035.9 mb 0.00 in0.0 mm 0.00 in0.0 mm 0.00 in0.0 mm
02:45 PM 33.6°F0.9°C 21.2°F-6.0°C 60% Calm Calm -- 30.58 in1035.6 mb 0.00 in0.0 mm 0.00 in0.0 mm 0.00 in0.0 mm
02:40 PM 33.3°F0.7°C 20.9°F-6.2°C 60% Calm Calm -- 30.59 in1035.9 mb 0.00 in0.0 mm 0.00 in0.0 mm 0.00 in0.0 mm
02:35 PM 32.7°F0.4°C 20.4°F-6.4°C 60% Calm Calm -- 30.58 in1035.6 mb 0.00 in0.0 mm 0.00 in0.0 mm 0.00 in0.0 mm
02:30 PM 32.5°F0.3°C 20.2°F-6.6°C 60% Calm Calm 1.6 mph2.6 kmh 30.59 in1035.9 mb 0.00 in0.0 mm 0.00 in0.0 mm 0.00 in0.0 mm
02:25 PM 32.5°F0.3°C 21.0°F-6.1°C 62% 1.6 mph NE2.6 kmh NE 3.1 mph5.0 kmh 30.58 in1035.6 mb 0.00 in0.0 mm 0.00 in0.0 mm 0.00 in0.0 mm
02:20 PM 32.5°F0.3°C 21.0°F-6.1°C 62% 1.6 mph NE2.6 kmh NE 2.2 mph3.5 kmh 30.58 in1035.6 mb 0.00 in0.0 mm 0.00 in0.0 mm 0.00 in0.0 mm
02:15 PM 32.4°F0.2°C 20.8°F-6.2°C 62% 0.7 mph NE1.1 kmh NE 2.2 mph3.5 kmh 30.58 in1035.6 mb 0.00 in0.0 mm 0.00 in0.0 mm 0.00 in0.0 mm
02:10 PM 32.5°F0.3°C 21.0°F-6.1°C 62% 2.2 mph SE3.5 kmh SE 3.8 mph6.1 kmh 30.58 in1035.6 mb 0.00 in0.0 mm 0.00 in0.0 mm 0.00 in0.0 mm
02:05 PM 32.5°F0.3°C 20.6°F-6.3°C 61% Calm Calm 1.6 mph2.6 kmh 30.58 in1035.6 mb 0.00 in0.0 mm 0.00 in0.0 mm 0.00 in0.0 mm
02:00 PM 32.5°F0.3°C 20.6°F-6.3°C 61% Calm Calm 1.6 mph2.6 kmh 30.58 in1035.6 mb 0.00 in0.0 mm 0.00 in0.0 mm 0.00 in0.0 mm
01:55 PM 32.9°F0.5°C 21.7°F-5.7°C 63% 3.8 mph 6.1 kmh 6.0 mph9.7 kmh 30.58 in1035.6 mb 0.00 in0.0 mm 0.00 in0.0 mm 0.00 in0.0 mm
01:50 PM 33.1°F0.6°C 21.9°F-5.6°C 63% 3.1 mph NE5.0 kmh NE 4.5 mph7.2 kmh 30.57 in1035.2 mb 0.00 in0.0 mm 0.00 in0.0 mm 0.00 in0.0 mm
01:45 PM 33.1°F0.6°C 22.2°F-5.4°C 64% 1.6 mph SE2.6 kmh SE 2.2 mph3.5 kmh 30.57 in1035.2 mb 0.00 in0.0 mm 0.00 in0.0 mm 0.00 in0.0 mm
01:40 PM 32.7°F0.4°C 22.3°F-5.4°C 65% 1.6 mph SE2.6 kmh SE 3.1 mph5.0 kmh 30.58 in1035.6 mb 0.00 in0.0 mm 0.00 in0.0 mm 0.00 in0.0 mm
01:35 PM 32.5°F0.3°C 22.5°F-5.3°C 66% 6.0 mph 9.7 kmh 7.6 mph12.2 kmh 30.57 in1035.2 mb 0.00 in0.0 mm 0.00 in0.0 mm 0.00 in0.0 mm
01:30 PM 32.2°F0.1°C 22.5°F-5.3°C 67% Calm Calm 0.7 mph1.1 kmh 30.57 in1035.2 mb 0.00 in0.0 mm 0.00 in0.0 mm 0.00 in0.0 mm
01:25 PM 32.0°F0.0°C 22.7°F-5.2°C 68% 3.1 mph 5.0 kmh 6.0 mph9.7 kmh 30.58 in1035.6 mb 0.00 in0.0 mm 0.00 in0.0 mm 0.00 in0.0 mm
01:20 PM 31.3°F-0.4°C 22.7°F-5.2°C 70% 0.7 mph E1.1 kmh E 3.1 mph5.0 kmh 30.58 in1035.6 mb 0.00 in0.0 mm 0.00 in0.0 mm 0.00 in0.0 mm
01:15 PM 30.7°F-0.7°C 21.8°F-5.7°C 69% 1.6 mph 2.6 kmh 3.1 mph5.0 kmh 30.58 in1035.6 mb 0.00 in0.0 mm 0.00 in0.0 mm 0.00 in0.0 mm
01:10 PM 30.6°F-0.8°C 22.0°F-5.6°C 70% 1.6 mph NE2.6 kmh NE 3.1 mph5.0 kmh 30.58 in1035.6 mb 0.00 in0.0 mm 0.00 in0.0 mm 0.00 in0.0 mm
01:05 PM 30.4°F-0.9°C 21.8°F-5.7°C 70% 1.6 mph NE2.6 kmh NE 4.5 mph7.2 kmh 30.59 in1035.9 mb 0.00 in0.0 mm 0.00 in0.0 mm 0.00 in0.0 mm
01:00 PM 30.4°F-0.9°C 21.8°F-5.7°C 70% 3.8 mph ENE6.1 kmh ENE 5.4 mph8.7 kmh 30.58 in1035.6 mb 0.00 in0.0 mm 0.00 in0.0 mm 0.00 in0.0 mm
12:55 PM 30.4°F-0.9°C 22.1°F-5.5°C 71% 1.6 mph NE2.6 kmh NE 3.1 mph5.0 kmh 30.59 in1035.9 mb 0.00 in0.0 mm 0.00 in0.0 mm 0.00 in0.0 mm
12:50 PM 30.4°F-0.9°C 22.1°F-5.5°C 71% 1.6 mph NE2.6 kmh NE 3.1 mph5.0 kmh 30.58 in1035.6 mb 0.00 in0.0 mm 0.00 in0.0 mm 0.00 in0.0 mm
12:45 PM 30.4°F-0.9°C 22.5°F-5.3°C 72% 1.6 mph NE2.6 kmh NE 3.8 mph6.1 kmh 30.58 in1035.6 mb 0.00 in0.0 mm 0.00 in0.0 mm 0.00 in0.0 mm
12:40 PM 30.0°F-1.1°C 22.1°F-5.5°C 72% Calm Calm 1.6 mph2.6 kmh 30.59 in1035.9 mb 0.00 in0.0 mm 0.00 in0.0 mm 0.00 in0.0 mm
12:35 PM 29.7°F-1.3°C 22.1°F-5.5°C 73% 0.7 mph NW1.1 kmh NW 2.2 mph3.5 kmh 30.59 in1035.9 mb 0.00 in0.0 mm 0.00 in0.0 mm 0.00 in0.0 mm
12:30 PM 29.7°F-1.3°C 22.1°F-5.5°C 73% 1.6 mph NE2.6 kmh NE 2.2 mph3.5 kmh 30.59 in1035.9 mb 0.00 in0.0 mm 0.00 in0.0 mm 0.00 in0.0 mm
12:25 PM 29.7°F-1.3°C 22.4°F-5.3°C 74% 3.1 mph NE5.0 kmh NE 4.5 mph7.2 kmh 30.59 in1035.9 mb 0.00 in0.0 mm 0.00 in0.0 mm 0.00 in0.0 mm
12:20 PM 29.7°F-1.3°C 22.7°F-5.2°C 75% 3.1 mph NE5.0 kmh NE 5.4 mph8.7 kmh 30.59 in1035.9 mb 0.00 in0.0 mm 0.00 in0.0 mm 0.00 in0.0 mm
12:15 PM 29.5°F-1.4°C 22.9°F-5.1°C 76% 3.1 mph NE5.0 kmh NE 4.5 mph7.2 kmh 30.59 in1035.9 mb 0.00 in0.0 mm 0.00 in0.0 mm 0.00 in0.0 mm
12:10 PM 29.7°F-1.3°C 23.7°F-4.6°C 78% 5.4 mph 8.7 kmh 6.9 mph11.1 kmh 30.59 in1035.9 mb 0.00 in0.0 mm 0.00 in0.0 mm 0.00 in0.0 mm
12:05 PM 29.7°F-1.3°C 24.6°F-4.1°C 81% Calm Calm 0.7 mph1.1 kmh 30.60 in1036.2 mb 0.00 in0.0 mm 0.00 in0.0 mm 0.00 in0.0 mm
12:00 PM 29.7°F-1.3°C 24.6°F-4.1°C 81% Calm Calm 0.7 mph1.1 kmh 30.60 in1036.2 mb 0.00 in0.0 mm 0.00 in0.0 mm 0.00 in0.0 mm
11:55 AM 29.5°F-1.4°C 24.4°F-4.2°C 81% 1.6 mph NW2.6 kmh NW 2.2 mph3.5 kmh 30.59 in1035.9 mb 0.00 in0.0 mm 0.00 in0.0 mm 0.00 in0.0 mm
11:50 AM 29.3°F-1.5°C 24.5°F-4.2°C 82% 0.7 mph NW1.1 kmh NW 2.2 mph3.5 kmh 30.59 in1035.9 mb 0.00 in0.0 mm 0.00 in0.0 mm 0.00 in0.0 mm
11:45 AM 28.9°F-1.7°C 24.1°F-4.4°C 82% 0.7 mph W1.1 kmh W 1.6 mph2.6 kmh 30.59 in1035.9 mb 0.00 in0.0 mm 0.00 in0.0 mm 0.00 in0.0 mm
11:40 AM 28.4°F-2.0°C 23.9°F-4.5°C 83% 0.7 mph W1.1 kmh W 1.6 mph2.6 kmh 30.59 in1035.9 mb 0.00 in0.0 mm 0.00 in0.0 mm 0.00 in0.0 mm
11:35 AM 28.0°F-2.2°C 22.7°F-5.2°C 80% 2.2 mph 3.5 kmh 3.1 mph5.0 kmh 30.59 in1035.9 mb 0.00 in0.0 mm 0.00 in0.0 mm 0.00 in0.0 mm
11:30 AM 28.0°F-2.2°C 23.0°F-5.0°C 81% 1.6 mph NE2.6 kmh NE 3.8 mph6.1 kmh 30.59 in1035.9 mb 0.00 in0.0 mm 0.00 in0.0 mm 0.00 in0.0 mm
11:25 AM 27.7°F-2.4°C 22.6°F-5.2°C 81% 2.2 mph NW3.5 kmh NW 3.8 mph6.1 kmh 30.59 in1035.9 mb 0.00 in0.0 mm 0.00 in0.0 mm 0.00 in0.0 mm
11:20 AM 27.5°F-2.5°C 22.4°F-5.3°C 81% 1.6 mph SW2.6 kmh SW 2.2 mph3.5 kmh 30.59 in1035.9 mb 0.00 in0.0 mm 0.00 in0.0 mm 0.00 in0.0 mm
11:15 AM 27.1°F-2.7°C 22.1°F-5.5°C 81% Calm Calm 1.6 mph2.6 kmh 30.59 in1035.9 mb 0.00 in0.0 mm 0.00 in0.0 mm 0.00 in0.0 mm
11:10 AM 26.8°F-2.9°C 21.7°F-5.7°C 81% 0.7 mph E1.1 kmh E 2.2 mph3.5 kmh 30.59 in1035.9 mb 0.00 in0.0 mm 0.00 in0.0 mm 0.00 in0.0 mm
11:05 AM 26.2°F-3.2°C 21.5°F-5.8°C 82% 0.7 mph E1.1 kmh E 2.2 mph3.5 kmh 30.59 in1035.9 mb 0.00 in0.0 mm 0.00 in0.0 mm 0.00 in0.0 mm
11:00 AM 25.9°F-3.4°C 21.2°F-6.0°C 82% Calm Calm 0.7 mph1.1 kmh 30.59 in1035.9 mb 0.00 in0.0 mm 0.00 in0.0 mm 0.00 in0.0 mm
10:55 AM 25.5°F-3.6°C 20.8°F-6.2°C 82% Calm Calm -- 30.59 in1035.9 mb 0.00 in0.0 mm 0.00 in0.0 mm 0.00 in0.0 mm
10:50 AM 25.0°F-3.9°C 20.3°F-6.5°C 82% Calm Calm 0.7 mph1.1 kmh 30.59 in1035.9 mb 0.00 in0.0 mm 0.00 in0.0 mm 0.00 in0.0 mm
10:45 AM 24.6°F-4.1°C 19.9°F-6.7°C 82% Calm Calm 0.7 mph1.1 kmh 30.59 in1035.9 mb 0.00 in0.0 mm 0.00 in0.0 mm 0.00 in0.0 mm
10:40 AM 24.3°F-4.3°C 19.9°F-6.7°C 83% Calm Calm 0.7 mph1.1 kmh 30.59 in1035.9 mb 0.00 in0.0 mm 0.00 in0.0 mm 0.00 in0.0 mm
10:35 AM 24.1°F-4.4°C 19.7°F-6.8°C 83% Calm Calm 1.6 mph2.6 kmh 30.58 in1035.6 mb 0.00 in0.0 mm 0.00 in0.0 mm 0.00 in0.0 mm
10:30 AM 23.7°F-4.6°C 19.3°F-7.1°C 83% 1.6 mph SE2.6 kmh SE 3.1 mph5.0 kmh 30.58 in1035.6 mb 0.00 in0.0 mm 0.00 in0.0 mm 0.00 in0.0 mm
10:25 AM 23.5°F-4.7°C 19.2°F-7.1°C 83% Calm Calm 0.7 mph1.1 kmh 30.58 in1035.6 mb 0.00 in0.0 mm 0.00 in0.0 mm 0.00 in0.0 mm
10:20 AM 23.2°F-4.9°C 18.8°F-7.3°C 83% Calm Calm 0.7 mph1.1 kmh 30.58 in1035.6 mb 0.00 in0.0 mm 0.00 in0.0 mm 0.00 in0.0 mm
10:15 AM 23.0°F-5.0°C 18.6°F-7.4°C 83% 1.6 mph NE2.6 kmh NE 2.2 mph3.5 kmh 30.58 in1035.6 mb 0.00 in0.0 mm 0.00 in0.0 mm 0.00 in0.0 mm
10:10 AM 22.6°F-5.2°C 18.3°F-7.6°C 83% 0.7 mph NE1.1 kmh NE 1.6 mph2.6 kmh 30.58 in1035.6 mb 0.00 in0.0 mm 0.00 in0.0 mm 0.00 in0.0 mm
10:05 AM 22.1°F-5.5°C 17.7°F-7.9°C 83% 0.7 mph S1.1 kmh S 2.2 mph3.5 kmh 30.58 in1035.6 mb 0.00 in0.0 mm 0.00 in0.0 mm 0.00 in0.0 mm
10:00 AM 22.1°F-5.5°C 17.7°F-7.9°C 83% 0.7 mph S1.1 kmh S 2.2 mph3.5 kmh 30.58 in1035.6 mb 0.00 in0.0 mm 0.00 in0.0 mm 0.00 in0.0 mm
09:55 AM 21.6°F-5.8°C 17.2°F-8.2°C 83% 0.7 mph E1.1 kmh E 2.2 mph3.5 kmh 30.58 in1035.6 mb 0.00 in0.0 mm 0.00 in0.0 mm 0.00 in0.0 mm
09:50 AM 21.2°F-6.0°C 16.6°F-8.6°C 82% Calm Calm 1.6 mph2.6 kmh 30.58 in1035.6 mb 0.00 in0.0 mm 0.00 in0.0 mm 0.00 in0.0 mm
09:45 AM 20.8°F-6.2°C 16.5°F-8.6°C 83% 0.7 mph E1.1 kmh E 2.2 mph3.5 kmh 30.58 in1035.6 mb 0.00 in0.0 mm 0.00 in0.0 mm 0.00 in0.0 mm
09:39 AM 20.5°F-6.4°C 16.2°F-8.8°C 83% Calm Calm 0.7 mph1.1 kmh 30.57 in1035.2 mb 0.00 in0.0 mm 0.00 in0.0 mm 0.00 in0.0 mm
09:34 AM 20.1°F-6.6°C 15.8°F-9.0°C 83% Calm Calm 0.7 mph1.1 kmh 30.57 in1035.2 mb 0.00 in0.0 mm 0.00 in0.0 mm 0.00 in0.0 mm
09:29 AM 19.9°F-6.7°C 15.6°F-9.1°C 83% Calm Calm 1.6 mph2.6 kmh 30.57 in1035.2 mb 0.00 in0.0 mm 0.00 in0.0 mm 0.00 in0.0 mm
09:24 AM 19.8°F-6.8°C 15.2°F-9.3°C 82% Calm Calm 1.6 mph2.6 kmh 30.57 in1035.2 mb 0.00 in0.0 mm 0.00 in0.0 mm 0.00 in0.0 mm
09:19 AM 19.4°F-7.0°C 14.8°F-9.6°C 82% 1.6 mph SE2.6 kmh SE 2.2 mph3.5 kmh 30.57 in1035.2 mb 0.00 in0.0 mm 0.00 in0.0 mm 0.00 in0.0 mm
09:14 AM 19.2°F-7.1°C 14.6°F-9.7°C 82% 0.7 mph E1.1 kmh E 2.2 mph3.5 kmh 30.57 in1035.2 mb 0.00 in0.0 mm 0.00 in0.0 mm 0.00 in0.0 mm
09:09 AM 18.9°F-7.3°C 13.2°F-10.4°C 78% Calm Calm -- 30.57 in1035.2 mb 0.00 in0.0 mm 0.00 in0.0 mm 0.00 in0.0 mm
09:04 AM 18.7°F-7.4°C 13.0°F-10.6°C 78% Calm Calm -- 30.57 in1035.2 mb 0.00 in0.0 mm 0.00 in0.0 mm 0.00 in0.0 mm
08:59 AM 18.5°F-7.5°C 12.8°F-10.7°C 78% Calm Calm -- 30.57 in1035.2 mb 0.00 in0.0 mm 0.00 in0.0 mm 0.00 in0.0 mm
08:54 AM 18.5°F-7.5°C 12.8°F-10.7°C 78% Calm Calm -- 30.57 in1035.2 mb 0.00 in0.0 mm 0.00 in0.0 mm 0.00 in0.0 mm
08:49 AM 18.5°F-7.5°C 12.8°F-10.7°C 78% Calm Calm -- 30.57 in1035.2 mb 0.00 in0.0 mm 0.00 in0.0 mm 0.00 in0.0 mm
08:44 AM 18.5°F-7.5°C 12.8°F-10.7°C 78% Calm Calm -- 30.57 in1035.2 mb 0.00 in0.0 mm 0.00 in0.0 mm 0.00 in0.0 mm
08:39 AM 18.3°F-7.6°C 12.6°F-10.8°C 78% Calm Calm -- 30.57 in1035.2 mb 0.00 in0.0 mm 0.00 in0.0 mm 0.00 in0.0 mm
08:34 AM 18.3°F-7.6°C 12.6°F-10.8°C 78% Calm Calm -- 30.57 in1035.2 mb 0.00 in0.0 mm 0.00 in0.0 mm 0.00 in0.0 mm
08:29 AM 18.3°F-7.6°C 12.6°F-10.8°C 78% 0.7 mph SW1.1 kmh SW 1.6 mph2.6 kmh 30.57 in1035.2 mb 0.00 in0.0 mm 0.00 in0.0 mm 0.00 in0.0 mm
08:24 AM 18.5°F-7.5°C 12.8°F-10.7°C 78% 1.6 mph S2.6 kmh S 2.2 mph3.5 kmh 30.57 in1035.2 mb 0.00 in0.0 mm 0.00 in0.0 mm 0.00 in0.0 mm
08:19 AM 18.5°F-7.5°C 12.8°F-10.7°C 78% 1.6 mph S2.6 kmh S 2.2 mph3.5 kmh 30.57 in1035.2 mb 0.00 in0.0 mm 0.00 in0.0 mm 0.00 in0.0 mm
08:14 AM 18.7°F-7.4°C 13.0°F-10.6°C 78% 0.7 mph SW1.1 kmh SW 1.6 mph2.6 kmh 30.57 in1035.2 mb 0.00 in0.0 mm 0.00 in0.0 mm 0.00 in0.0 mm
08:09 AM 18.9°F-7.3°C 13.2°F-10.4°C 78% Calm Calm -- 30.57 in1035.2 mb 0.00 in0.0 mm 0.00 in0.0 mm 0.00 in0.0 mm
08:04 AM 18.7°F-7.4°C 13.0°F-10.6°C 78% 0.7 mph 1.1 kmh 1.6 mph2.6 kmh 30.57 in1035.2 mb 0.00 in0.0 mm 0.00 in0.0 mm 0.00 in0.0 mm
07:59 AM 18.7°F-7.4°C 13.0°F-10.6°C 78% 0.7 mph 1.1 kmh 1.6 mph2.6 kmh 30.57 in1035.2 mb 0.00 in0.0 mm 0.00 in0.0 mm 0.00 in0.0 mm
07:54 AM 18.7°F-7.4°C 13.0°F-10.6°C 78% 0.7 mph E1.1 kmh E 2.2 mph3.5 kmh 30.57 in1035.2 mb 0.00 in0.0 mm 0.00 in0.0 mm 0.00 in0.0 mm
07:49 AM 18.5°F-7.5°C 12.8°F-10.7°C 78% Calm Calm 0.7 mph1.1 kmh 30.57 in1035.2 mb 0.00 in0.0 mm 0.00 in0.0 mm 0.00 in0.0 mm
07:44 AM 18.7°F-7.4°C 13.0°F-10.6°C 78% Calm Calm -- 30.57 in1035.2 mb 0.00 in0.0 mm 0.00 in0.0 mm 0.00 in0.0 mm
07:39 AM 18.7°F-7.4°C 13.0°F-10.6°C 78% Calm Calm 0.7 mph1.1 kmh 30.56 in1034.9 mb 0.00 in0.0 mm 0.00 in0.0 mm 0.00 in0.0 mm
07:34 AM 18.9°F-7.3°C 13.2°F-10.4°C 78% Calm Calm 0.7 mph1.1 kmh 30.56 in1034.9 mb 0.00 in0.0 mm 0.00 in0.0 mm 0.00 in0.0 mm
07:29 AM 19.0°F-7.2°C 13.3°F-10.4°C 78% 0.7 mph SW1.1 kmh SW 1.6 mph2.6 kmh 30.56 in1034.9 mb 0.00 in0.0 mm 0.00 in0.0 mm 0.00 in0.0 mm
07:24 AM 19.2°F-7.1°C 14.6°F-9.7°C 82% 0.7 mph SW1.1 kmh SW 1.6 mph2.6 kmh 30.56 in1034.9 mb 0.00 in0.0 mm 0.00 in0.0 mm 0.00 in0.0 mm
07:19 AM 19.4°F-7.0°C 14.8°F-9.6°C 82% Calm Calm -- 30.56 in1034.9 mb 0.00 in0.0 mm 0.00 in0.0 mm 0.00 in0.0 mm
07:14 AM 19.6°F-6.9°C 15.0°F-9.4°C 82% Calm Calm 0.7 mph1.1 kmh 30.56 in1034.9 mb 0.00 in0.0 mm 0.00 in0.0 mm 0.00 in0.0 mm
07:09 AM 19.8°F-6.8°C 15.2°F-9.3°C 82% Calm Calm -- 30.56 in1034.9 mb 0.00 in0.0 mm 0.00 in0.0 mm 0.00 in0.0 mm
07:04 AM 19.9°F-6.7°C 15.6°F-9.1°C 83% Calm Calm 0.7 mph1.1 kmh 30.56 in1034.9 mb 0.00 in0.0 mm 0.00 in0.0 mm 0.00 in0.0 mm
06:59 AM 20.1°F-6.6°C 15.8°F-9.0°C 83% 0.7 mph SE1.1 kmh SE 1.6 mph2.6 kmh 30.56 in1034.9 mb 0.00 in0.0 mm 0.00 in0.0 mm 0.00 in0.0 mm
06:54 AM 20.1°F-6.6°C 15.8°F-9.0°C 83% 0.7 mph S1.1 kmh S 1.6 mph2.6 kmh 30.56 in1034.9 mb 0.00 in0.0 mm 0.00 in0.0 mm 0.00 in0.0 mm
06:49 AM 20.3°F-6.5°C 16.0°F-8.9°C 83% 1.6 mph E2.6 kmh E 2.2 mph3.5 kmh 30.56 in1034.9 mb 0.00 in0.0 mm 0.00 in0.0 mm 0.00 in0.0 mm
06:44 AM 20.3°F-6.5°C 16.0°F-8.9°C 83% 1.6 mph E2.6 kmh E 2.2 mph3.5 kmh 30.56 in1034.9 mb 0.00 in0.0 mm 0.00 in0.0 mm 0.00 in0.0 mm
06:39 AM 20.3°F-6.5°C 16.0°F-8.9°C 83% 0.7 mph S1.1 kmh S 2.2 mph3.5 kmh 30.56 in1034.9 mb 0.00 in0.0 mm 0.00 in0.0 mm 0.00 in0.0 mm
06:34 AM 20.5°F-6.4°C 16.2°F-8.8°C 83% 0.7 mph SE1.1 kmh SE 1.6 mph2.6 kmh 30.56 in1034.9 mb 0.00 in0.0 mm 0.00 in0.0 mm 0.00 in0.0 mm
06:29 AM 20.7°F-6.3°C 16.3°F-8.7°C 83% 1.6 mph SW2.6 kmh SW 1.6 mph2.6 kmh 30.56 in1034.9 mb 0.00 in0.0 mm 0.00 in0.0 mm 0.00 in0.0 mm
06:24 AM 20.7°F-6.3°C 16.3°F-8.7°C 83% Calm Calm 0.7 mph1.1 kmh 30.56 in1034.9 mb 0.00 in0.0 mm 0.00 in0.0 mm 0.00 in0.0 mm
06:19 AM 20.8°F-6.2°C 16.5°F-8.6°C 83% 0.7 mph E1.1 kmh E 1.6 mph2.6 kmh 30.56 in1034.9 mb 0.00 in0.0 mm 0.00 in0.0 mm 0.00 in0.0 mm
06:14 AM 20.8°F-6.2°C 16.5°F-8.6°C 83% 0.7 mph SE1.1 kmh SE 1.6 mph2.6 kmh 30.57 in1035.2 mb 0.00 in0.0 mm 0.00 in0.0 mm 0.00 in0.0 mm
06:09 AM 21.0°F-6.1°C 16.4°F-8.7°C 82% 0.7 mph E1.1 kmh E 2.2 mph3.5 kmh 30.56 in1034.9 mb 0.00 in0.0 mm 0.00 in0.0 mm 0.00 in0.0 mm
06:04 AM 21.4°F-5.9°C 16.8°F-8.4°C 82% 1.6 mph SE2.6 kmh SE 2.2 mph3.5 kmh 30.56 in1034.9 mb 0.00 in0.0 mm 0.00 in0.0 mm 0.00 in0.0 mm
05:59 AM 21.4°F-5.9°C 16.8°F-8.4°C 82% 1.6 mph SE2.6 kmh SE 2.2 mph3.5 kmh 30.56 in1034.9 mb 0.00 in0.0 mm 0.00 in0.0 mm 0.00 in0.0 mm
05:54 AM 21.4°F-5.9°C 16.8°F-8.4°C 82% 0.7 mph E1.1 kmh E 1.6 mph2.6 kmh 30.56 in1034.9 mb 0.00 in0.0 mm 0.00 in0.0 mm 0.00 in0.0 mm
05:49 AM 21.2°F-6.0°C 16.6°F-8.6°C 82% 1.6 mph E2.6 kmh E 3.1 mph5.0 kmh 30.56 in1034.9 mb 0.00 in0.0 mm 0.00 in0.0 mm 0.00 in0.0 mm
05:44 AM 21.2°F-6.0°C 16.6°F-8.6°C 82% 0.7 mph E1.1 kmh E 1.6 mph2.6 kmh 30.56 in1034.9 mb 0.00 in0.0 mm 0.00 in0.0 mm 0.00 in0.0 mm
05:39 AM 20.8°F-6.2°C 16.5°F-8.6°C 83% 0.7 mph E1.1 kmh E 1.6 mph2.6 kmh 30.56 in1034.9 mb 0.00 in0.0 mm 0.00 in0.0 mm 0.00 in0.0 mm
05:34 AM 20.8°F-6.2°C 16.5°F-8.6°C 83% Calm Calm 1.6 mph2.6 kmh 30.56 in1034.9 mb 0.00 in0.0 mm 0.00 in0.0 mm 0.00 in0.0 mm
05:29 AM 21.0°F-6.1°C 16.4°F-8.7°C 82% 0.7 mph E1.1 kmh E 1.6 mph2.6 kmh 30.55 in1034.5 mb 0.00 in0.0 mm 0.00 in0.0 mm 0.00 in0.0 mm
05:24 AM 21.0°F-6.1°C 16.4°F-8.7°C 82% Calm Calm 0.7 mph1.1 kmh 30.56 in1034.9 mb 0.00 in0.0 mm 0.00 in0.0 mm 0.00 in0.0 mm
05:19 AM 21.2°F-6.0°C 16.6°F-8.6°C 82% Calm Calm 0.7 mph1.1 kmh 30.56 in1034.9 mb 0.00 in0.0 mm 0.00 in0.0 mm 0.00 in0.0 mm
05:14 AM 21.2°F-6.0°C 16.6°F-8.6°C 82% Calm Calm 0.7 mph1.1 kmh 30.56 in1034.9 mb 0.00 in0.0 mm 0.00 in0.0 mm 0.00 in0.0 mm
05:09 AM 21.6°F-5.8°C 16.9°F-8.4°C 82% 0.7 mph NE1.1 kmh NE 1.6 mph2.6 kmh 30.56 in1034.9 mb 0.00 in0.0 mm 0.00 in0.0 mm 0.00 in0.0 mm
05:04 AM 21.7°F-5.7°C 17.1°F-8.3°C 82% Calm Calm -- 30.56 in1034.9 mb 0.00 in0.0 mm 0.00 in0.0 mm 0.00 in0.0 mm
04:59 AM 22.3°F-5.4°C 17.6°F-8.0°C 82% 0.7 mph S1.1 kmh S 0.7 mph1.1 kmh 30.56 in1034.9 mb 0.00 in0.0 mm 0.00 in0.0 mm 0.00 in0.0 mm
04:54 AM 22.5°F-5.3°C 18.1°F-7.7°C 83% 0.7 mph S1.1 kmh S 1.6 mph2.6 kmh 30.57 in1035.2 mb 0.00 in0.0 mm 0.00 in0.0 mm 0.00 in0.0 mm
04:49 AM 22.8°F-5.1°C 18.2°F-7.7°C 82% 0.7 mph S1.1 kmh S 1.6 mph2.6 kmh 30.56 in1034.9 mb 0.00 in0.0 mm 0.00 in0.0 mm 0.00 in0.0 mm
04:44 AM 22.8°F-5.1°C 18.2°F-7.7°C 82% 0.7 mph E1.1 kmh E 2.2 mph3.5 kmh 30.57 in1035.2 mb 0.00 in0.0 mm 0.00 in0.0 mm 0.00 in0.0 mm
04:39 AM 22.8°F-5.1°C 18.2°F-7.7°C 82% 0.7 mph E1.1 kmh E 2.2 mph3.5 kmh 30.57 in1035.2 mb 0.00 in0.0 mm 0.00 in0.0 mm 0.00 in0.0 mm
04:34 AM 22.8°F-5.1°C 18.2°F-7.7°C 82% 2.2 mph NE3.5 kmh NE 3.1 mph5.0 kmh 30.56 in1034.9 mb 0.00 in0.0 mm 0.00 in0.0 mm 0.00 in0.0 mm
04:29 AM 22.6°F-5.2°C 18.0°F-7.8°C 82% 2.2 mph NE3.5 kmh NE 3.8 mph6.1 kmh 30.56 in1034.9 mb 0.00 in0.0 mm 0.00 in0.0 mm 0.00 in0.0 mm
04:24 AM 22.3°F-5.4°C 17.6°F-8.0°C 82% 2.2 mph E3.5 kmh E 3.1 mph5.0 kmh 30.57 in1035.2 mb 0.00 in0.0 mm 0.00 in0.0 mm 0.00 in0.0 mm
04:19 AM 21.9°F-5.6°C 17.3°F-8.2°C 82% 1.6 mph NE2.6 kmh NE 2.2 mph3.5 kmh 30.57 in1035.2 mb 0.00 in0.0 mm 0.00 in0.0 mm 0.00 in0.0 mm
04:14 AM 21.6°F-5.8°C 16.9°F-8.4°C 82% 0.7 mph NE1.1 kmh NE 1.6 mph2.6 kmh 30.57 in1035.2 mb 0.00 in0.0 mm 0.00 in0.0 mm 0.00 in0.0 mm
04:09 AM 21.6°F-5.8°C 16.9°F-8.4°C 82% 0.7 mph NE1.1 kmh NE 1.6 mph2.6 kmh 30.57 in1035.2 mb 0.00 in0.0 mm 0.00 in0.0 mm 0.00 in0.0 mm
04:04 AM 21.6°F-5.8°C 16.9°F-8.4°C 82% 0.7 mph NE1.1 kmh NE 1.6 mph2.6 kmh 30.57 in1035.2 mb 0.00 in0.0 mm 0.00 in0.0 mm 0.00 in0.0 mm
03:59 AM 21.6°F-5.8°C 16.9°F-8.4°C 82% 1.6 mph NE2.6 kmh NE 2.2 mph3.5 kmh 30.56 in1034.9 mb 0.00 in0.0 mm 0.00 in0.0 mm 0.00 in0.0 mm
03:54 AM 21.6°F-5.8°C 16.6°F-8.6°C 81% Calm Calm 1.6 mph2.6 kmh 30.56 in1034.9 mb 0.00 in0.0 mm 0.00 in0.0 mm 0.00 in0.0 mm
03:49 AM 21.7°F-5.7°C 17.1°F-8.3°C 82% Calm Calm -- 30.56 in1034.9 mb 0.00 in0.0 mm 0.00 in0.0 mm 0.00 in0.0 mm
03:44 AM 21.7°F-5.7°C 17.1°F-8.3°C 82% Calm Calm -- 30.56 in1034.9 mb 0.00 in0.0 mm 0.00 in0.0 mm 0.00 in0.0 mm
03:39 AM 21.9°F-5.6°C 17.3°F-8.2°C 82% Calm Calm -- 30.56 in1034.9 mb 0.00 in0.0 mm 0.00 in0.0 mm 0.00 in0.0 mm
03:34 AM 22.3°F-5.4°C 17.6°F-8.0°C 82% Calm Calm -- 30.57 in1035.2 mb 0.00 in0.0 mm 0.00 in0.0 mm 0.00 in0.0 mm
03:29 AM 22.6°F-5.2°C 18.0°F-7.8°C 82% Calm Calm -- 30.57 in1035.2 mb 0.00 in0.0 mm 0.00 in0.0 mm 0.00 in0.0 mm
03:24 AM 23.0°F-5.0°C 18.1°F-7.7°C 81% Calm Calm -- 30.57 in1035.2 mb 0.00 in0.0 mm 0.00 in0.0 mm 0.00 in0.0 mm
03:19 AM 23.2°F-4.9°C 18.5°F-7.5°C 82% Calm Calm -- 30.57 in1035.2 mb 0.00 in0.0 mm 0.00 in0.0 mm 0.00 in0.0 mm
03:14 AM 23.4°F-4.8°C 18.7°F-7.4°C 82% Calm Calm -- 30.57 in1035.2 mb 0.00 in0.0 mm 0.00 in0.0 mm 0.00 in0.0 mm
03:09 AM 23.5°F-4.7°C 18.9°F-7.3°C 82% Calm Calm 0.7 mph1.1 kmh 30.58 in1035.6 mb 0.00 in0.0 mm 0.00 in0.0 mm 0.00 in0.0 mm
03:04 AM 23.7°F-4.6°C 19.0°F-7.2°C 82% 1.6 mph NE2.6 kmh NE 2.2 mph3.5 kmh 30.57 in1035.2 mb 0.00 in0.0 mm 0.00 in0.0 mm 0.00 in0.0 mm
02:59 AM 23.7°F-4.6°C 19.0°F-7.2°C 82% 0.7 mph NE1.1 kmh NE 1.6 mph2.6 kmh 30.58 in1035.6 mb 0.00 in0.0 mm 0.00 in0.0 mm 0.00 in0.0 mm
02:54 AM 23.7°F-4.6°C 19.0°F-7.2°C 82% 1.6 mph NE2.6 kmh NE 2.2 mph3.5 kmh 30.58 in1035.6 mb 0.00 in0.0 mm 0.00 in0.0 mm 0.00 in0.0 mm
02:49 AM 23.9°F-4.5°C 19.2°F-7.1°C 82% 1.6 mph NE2.6 kmh NE 2.2 mph3.5 kmh 30.58 in1035.6 mb 0.00 in0.0 mm 0.00 in0.0 mm 0.00 in0.0 mm
02:44 AM 23.9°F-4.5°C 19.2°F-7.1°C 82% 2.2 mph NE3.5 kmh NE 3.8 mph6.1 kmh 30.58 in1035.6 mb 0.00 in0.0 mm 0.00 in0.0 mm 0.00 in0.0 mm
02:39 AM 23.9°F-4.5°C 19.2°F-7.1°C 82% 1.6 mph NE2.6 kmh NE 2.2 mph3.5 kmh 30.58 in1035.6 mb 0.00 in0.0 mm 0.00 in0.0 mm 0.00 in0.0 mm
02:34 AM 23.9°F-4.5°C 19.2°F-7.1°C 82% 2.2 mph E3.5 kmh E 4.5 mph7.2 kmh 30.57 in1035.2 mb 0.00 in0.0 mm 0.00 in0.0 mm 0.00 in0.0 mm
02:29 AM 23.9°F-4.5°C 19.2°F-7.1°C 82% 3.1 mph E5.0 kmh E 3.8 mph6.1 kmh 30.57 in1035.2 mb 0.00 in0.0 mm 0.00 in0.0 mm 0.00 in0.0 mm
02:24 AM 23.9°F-4.5°C 19.2°F-7.1°C 82% 2.2 mph NE3.5 kmh NE 3.1 mph5.0 kmh 30.57 in1035.2 mb 0.00 in0.0 mm 0.00 in0.0 mm 0.00 in0.0 mm
02:19 AM 23.9°F-4.5°C 19.2°F-7.1°C 82% 2.2 mph NE3.5 kmh NE 3.1 mph5.0 kmh 30.57 in1035.2 mb 0.00 in0.0 mm 0.00 in0.0 mm 0.00 in0.0 mm
02:14 AM 23.9°F-4.5°C 19.2°F-7.1°C 82% 1.6 mph NE2.6 kmh NE 3.1 mph5.0 kmh 30.57 in1035.2 mb 0.00 in0.0 mm 0.00 in0.0 mm 0.00 in0.0 mm
02:09 AM 23.9°F-4.5°C 19.2°F-7.1°C 82% 0.7 mph E1.1 kmh E 2.2 mph3.5 kmh 30.57 in1035.2 mb 0.00 in0.0 mm 0.00 in0.0 mm 0.00 in0.0 mm
02:04 AM 23.9°F-4.5°C 19.2°F-7.1°C 82% 3.1 mph NE5.0 kmh NE 4.5 mph7.2 kmh 30.57 in1035.2 mb 0.00 in0.0 mm 0.00 in0.0 mm 0.00 in0.0 mm
01:59 AM 23.9°F-4.5°C 19.2°F-7.1°C 82% 3.1 mph NE5.0 kmh NE 3.8 mph6.1 kmh 30.57 in1035.2 mb 0.00 in0.0 mm 0.00 in0.0 mm 0.00 in0.0 mm
01:54 AM 23.9°F-4.5°C 18.9°F-7.3°C 81% 2.2 mph NE3.5 kmh NE 3.8 mph6.1 kmh 30.57 in1035.2 mb 0.00 in0.0 mm 0.00 in0.0 mm 0.00 in0.0 mm
01:49 AM 23.9°F-4.5°C 18.9°F-7.3°C 81% 3.1 mph NE5.0 kmh NE 4.5 mph7.2 kmh 30.57 in1035.2 mb 0.00 in0.0 mm 0.00 in0.0 mm 0.00 in0.0 mm
01:44 AM 23.9°F-4.5°C 18.9°F-7.3°C 81% 0.7 mph NW1.1 kmh NW 2.2 mph3.5 kmh 30.58 in1035.6 mb 0.00 in0.0 mm 0.00 in0.0 mm 0.00 in0.0 mm
01:39 AM 24.1°F-4.4°C 19.1°F-7.2°C 81% 1.6 mph NE2.6 kmh NE 3.1 mph5.0 kmh 30.57 in1035.2 mb 0.00 in0.0 mm 0.00 in0.0 mm 0.00 in0.0 mm
01:34 AM 24.1°F-4.4°C 19.1°F-7.2°C 81% 0.7 mph NW1.1 kmh NW 1.6 mph2.6 kmh 30.57 in1035.2 mb 0.00 in0.0 mm 0.00 in0.0 mm 0.00 in0.0 mm
01:29 AM 24.3°F-4.3°C 19.6°F-6.9°C 82% 0.7 mph 1.1 kmh 2.2 mph3.5 kmh 30.57 in1035.2 mb 0.00 in0.0 mm 0.00 in0.0 mm 0.00 in0.0 mm
01:24 AM 24.4°F-4.2°C 19.7°F-6.8°C 82% 1.6 mph NE2.6 kmh NE 2.2 mph3.5 kmh 30.57 in1035.2 mb 0.00 in0.0 mm 0.00 in0.0 mm 0.00 in0.0 mm
01:19 AM 24.4°F-4.2°C 19.5°F-6.9°C 81% 2.2 mph 3.5 kmh 3.8 mph6.1 kmh 30.57 in1035.2 mb 0.00 in0.0 mm 0.00 in0.0 mm 0.00 in0.0 mm
01:14 AM 24.3°F-4.3°C 19.3°F-7.1°C 81% 1.6 mph 2.6 kmh 3.1 mph5.0 kmh 30.57 in1035.2 mb 0.00 in0.0 mm 0.00 in0.0 mm 0.00 in0.0 mm
01:09 AM 24.3°F-4.3°C 19.3°F-7.1°C 81% 0.7 mph NW1.1 kmh NW 3.1 mph5.0 kmh 30.57 in1035.2 mb 0.00 in0.0 mm 0.00 in0.0 mm 0.00 in0.0 mm
01:04 AM 24.4°F-4.2°C 19.5°F-6.9°C 81% 1.6 mph NE2.6 kmh NE 1.6 mph2.6 kmh 30.57 in1035.2 mb 0.00 in0.0 mm 0.00 in0.0 mm 0.00 in0.0 mm
12:59 AM 24.4°F-4.2°C 19.5°F-6.9°C 81% 0.7 mph NE1.1 kmh NE 2.2 mph3.5 kmh 30.57 in1035.2 mb 0.00 in0.0 mm 0.00 in0.0 mm 0.00 in0.0 mm
12:54 AM 24.4°F-4.2°C 19.5°F-6.9°C 81% 2.2 mph 3.5 kmh 3.1 mph5.0 kmh 30.57 in1035.2 mb 0.00 in0.0 mm 0.00 in0.0 mm 0.00 in0.0 mm
12:49 AM 24.4°F-4.2°C 19.5°F-6.9°C 81% 2.2 mph 3.5 kmh 3.8 mph6.1 kmh 30.57 in1035.2 mb 0.00 in0.0 mm 0.00 in0.0 mm 0.00 in0.0 mm
12:44 AM 24.4°F-4.2°C 19.5°F-6.9°C 81% 0.7 mph NE1.1 kmh NE 2.2 mph3.5 kmh 30.58 in1035.6 mb 0.00 in0.0 mm 0.00 in0.0 mm 0.00 in0.0 mm
12:39 AM 24.4°F-4.2°C 19.5°F-6.9°C 81% 2.2 mph NE3.5 kmh NE 3.1 mph5.0 kmh 30.57 in1035.2 mb 0.00 in0.0 mm 0.00 in0.0 mm 0.00 in0.0 mm
12:34 AM 24.4°F-4.2°C 19.5°F-6.9°C 81% 0.7 mph NE1.1 kmh NE 2.2 mph3.5 kmh 30.58 in1035.6 mb 0.00 in0.0 mm 0.00 in0.0 mm 0.00 in0.0 mm
12:29 AM 24.4°F-4.2°C 19.2°F-7.1°C 80% 1.6 mph NE2.6 kmh NE 3.1 mph5.0 kmh 30.58 in1035.6 mb 0.00 in0.0 mm 0.00 in0.0 mm 0.00 in0.0 mm
12:24 AM 24.4°F-4.2°C 19.2°F-7.1°C 80% 0.7 mph NE1.1 kmh NE 2.2 mph3.5 kmh 30.58 in1035.6 mb 0.00 in0.0 mm 0.00 in0.0 mm 0.00 in0.0 mm
12:19 AM 24.4°F-4.2°C 19.2°F-7.1°C 80% 0.7 mph E1.1 kmh E 1.6 mph2.6 kmh 30.57 in1035.2 mb 0.00 in0.0 mm 0.00 in0.0 mm 0.00 in0.0 mm
12:14 AM 24.6°F-4.1°C 19.1°F-7.2°C 79% 0.7 mph E1.1 kmh E 1.6 mph2.6 kmh 30.57 in1035.2 mb 0.00 in0.0 mm 0.00 in0.0 mm 0.00 in0.0 mm
12:09 AM 24.6°F-4.1°C 19.1°F-7.2°C 79% Calm Calm 2.2 mph3.5 kmh 30.57 in1035.2 mb 0.00 in0.0 mm 0.00 in0.0 mm 0.00 in0.0 mm
12:04 AM 24.8°F-4.0°C 19.2°F-7.1°C 79% 0.7 mph NE1.1 kmh NE 1.6 mph2.6 kmh 30.58 in1035.6 mb 0.00 in0.0 mm 0.00 in0.0 mm 0.00 in0.0 mm